FW2089 Weather Reports


Display with metric or nautical units.
time (UTC)temp
F
wind
direction
speed
MPH
gust
MPH
rain 1hr
in
rain 24hr
in
rain mn
in
humidity
%
barometer
mb
20210916104036 66 55 0.0 1.0 0.40 0.47 0.40 97 1022.9
20210916103507 66 55 0.0 2.0 0.39 0.46 0.39 97 1022.7
20210916103001 66 55 0.0 2.0 0.36 0.43 0.37 97 1022.8
20210916102502 66 55 0.0 0.0 0.29 0.36 0.30 96 1023.4
20210916102002 66 55 0.0 0.0 0.26 0.33 0.27 97 1023.2
20210916101503 66 55 0.0 0.0 0.25 0.32 0.25 97 1022.8
20210916101000 66 55 0.0 0.0 0.24 0.31 0.24 96 1022.5
20210916100454 66 55 0.0 1.0 0.20 0.27 0.21 96 1022.4
20210916095950 66 55 0.0 1.0 0.13 0.20 0.13 97 1022.2
20210916095445 66 55 0.0 2.0 0.05 0.12 0.05 97 1022.5
20210916094923 66 55 0.0 2.0 0.04 0.11 0.04 97 1022.4
20210916094411 66 56 0.0 2.0 0.03 0.10 0.03 96 1022.1
20210916093913 66 117 0.0 0.0 0.00 0.07 0.00 96 1021.9
20210916093401 66 117 0.0 0.0 0.00 0.07 0.00 96 1021.5
20210916092901 66 117 0.0 0.0 0.00 0.07 0.00 97 1021.1
20210916092357 66 117 0.0 0.0 0.00 0.07 0.00 96 1021.0
20210916091846 66 117 0.0 0.0 0.00 0.07 0.00 97 1021.0
20210916091341 66 117 0.0 0.0 0.00 0.07 0.00 96 1020.9
20210916090829 66 117 0.0 0.0 0.00 0.07 0.00 96 1020.9
20210916090326 66 117 0.0 0.0 0.00 0.07 0.00 96 1020.8
20210916085816 66 117 0.0 2.0 0.00 0.07 0.00 96 1020.7
20210916085310 66 117 0.0 5.0 0.00 0.07 0.00 96 1020.6
20210916084806 66 105 1.0 5.0 0.00 0.07 0.00 97 1020.8
20210916084303 67 339 0.0 4.0 0.00 0.07 0.00 97 1021.3
20210916083803 67 80 0.0 1.0 0.00 0.07 0.00 97 1021.2
20210916083303 67 83 0.0 0.0 0.00 0.07 0.00 97 1020.6
20210916082754 67 83 0.0 0.0 0.00 0.07 0.00 97 1020.1
20210916082253 67 83 0.0 0.0 0.00 0.07 0.00 97 1019.8
20210916081753 67 83 0.0 0.0 0.00 0.07 0.00 97 1019.7
20210916081251 67 83 0.0 0.0 0.00 0.07 0.00 97 1019.9
20210916080749 67 83 0.0 0.0 0.00 0.07 0.00 97 1019.9
20210916080244 67 83 0.0 0.0 0.00 0.07 0.00 97 1019.9
20210916075733 67 83 0.0 0.0 0.00 0.07 0.00 97 1019.9
20210916075226 67 83 0.0 0.0 0.00 0.07 0.00 97 1019.9
20210916074705 67 83 0.0 0.0 0.00 0.07 0.00 97 1019.8
20210916074205 67 83 0.0 0.0 0.00 0.07 0.00 97 1019.7
20210916073707 67 83 0.0 0.0 0.00 0.07 0.00 97 1019.7
20210916073154 67 83 0.0 0.0 0.00 0.07 0.00 97 1019.7
20210916072642 67 83 0.0 0.0 0.00 0.07 0.00 97 1019.6
20210916072138 67 83 0.0 0.0 0.00 0.07 0.00 97 1019.6
20210916071629 67 83 0.0 0.0 0.00 0.07 0.00 97 1019.8
20210916071122 67 83 0.0 0.0 0.00 0.07 0.00 96 1019.8
20210916070601 67 83 0.0 0.0 0.00 0.07 0.00 96 1019.8
20210916070058 67 83 0.0 0.0 0.00 0.07 0.00 96 1019.8
20210916065557 67 83 0.0 0.0 0.00 0.07 0.00 96 1019.9
20210916065049 67 83 0.0 0.0 0.00 0.07 0.00 97 1019.7
20210916064541 67 83 0.0 0.0 0.00 0.07 0.00 97 1019.7
20210916064036 67 83 0.0 0.0 0.00 0.07 0.00 96 1019.8
20210916063509 67 83 0.0 0.0 0.00 0.07 0.00 96 1019.7
20210916063005 68 83 0.0 0.0 0.00 0.07 0.00 96 1019.7
20210916062500 68 83 0.0 0.0 0.00 0.07 0.00 97 1019.6
20210916062002 68 83 0.0 0.0 0.00 0.07 0.00 97 1019.5
20210916061449 68 83 0.0 0.0 0.00 0.07 0.00 97 1019.5
20210916060945 68 83 0.0 1.0 0.00 0.07 0.00 97 1019.4
20210916060437 68 83 0.0 1.0 0.00 0.07 0.00 96 1019.5
20210916055929 68 83 0.0 0.0 0.00 0.07 0.00 96 1019.3
20210916055417 68 83 0.0 1.0 0.00 0.07 0.00 96 1019.5
20210916054913 68 83 0.0 1.0 0.00 0.07 0.00 97 1019.4
20210916054400 68 83 0.0 0.0 0.00 0.07 0.00 97 1019.2
20210916053857 67 83 0.0 0.0 0.00 0.07 0.00 96 1019.1
20210916053337 67 83 0.0 0.0 0.00 0.07 0.00 96 1019.1
20210916052833 67 83 0.0 0.0 0.00 0.07 0.00 96 1019.0
20210916052334 67 83 0.0 0.0 0.00 0.07 0.00 96 1019.1
20210916051823 67 83 0.0 0.0 0.00 0.07 0.00 96 1019.0
20210916051317 67 83 0.0 0.0 0.00 0.07 0.00 96 1019.0
20210916050807 67 83 0.0 0.0 0.00 0.07 0.00 96 1019.0
20210916050254 68 83 0.0 0.0 0.00 0.07 0.00 96 1019.0
20210916045753 68 83 0.0 0.0 0.00 0.07 0.00 96 1018.9
20210916045245 68 83 0.0 0.0 0.00 0.07 0.00 96 1018.9
20210916044737 68 83 0.0 0.0 0.00 0.07 0.00 96 1018.9
20210916044229 68 83 0.0 0.0 0.00 0.07 0.00 96 1018.8
20210916043721 68 83 0.0 0.0 0.00 0.07 0.00 96 1018.7
20210916043213 68 83 0.0 0.0 0.00 0.07 0.00 96 1018.7
20210916042703 68 83 0.0 0.0 0.00 0.07 0.00 96 1018.7
20210916042150 69 83 0.0 0.0 0.00 0.07 0.00 96 1018.8
20210916041649 69 83 0.0 0.0 0.00 0.07 0.00 96 1018.6
20210916041127 69 83 0.0 0.0 0.00 0.07 0.00 96 1018.8
20210916040627 69 83 0.0 0.0 0.00 0.07 0.00 96 1018.7
20210916040125 69 83 0.0 0.0 0.00 0.07 0.00 96 1018.7
20210916035617 69 83 0.0 0.0 0.00 0.07 0.07 96 1018.7
20210916035056 69 83 0.0 0.0 0.00 0.07 0.07 96 1018.7
20210916034556 69 83 0.0 0.0 0.00 0.07 0.07 96 1018.6
20210916034058 69 83 0.0 0.0 0.00 0.07 0.07 96 1018.7
20210916033557 69 83 0.0 0.0 0.00 0.07 0.07 96 1018.7
20210916033043 70 83 0.0 0.0 0.00 0.07 0.07 96 1018.6
20210916032542 69 83 0.0 0.0 0.00 0.07 0.07 96 1018.5
20210916032035 69 83 0.0 0.0 0.00 0.07 0.07 96 1018.6
20210916031529 69 83 0.0 0.0 0.00 0.07 0.07 96 1018.6
20210916031021 69 83 0.0 0.0 0.00 0.07 0.07 96 1018.5
20210916030510 70 83 0.0 0.0 0.00 0.07 0.07 96 1018.3
20210916030002 70 83 0.0 0.0 0.00 0.07 0.07 96 1018.3
20210916025500 70 83 0.0 0.0 0.00 0.07 0.07 96 1018.3
20210916024958 70 83 0.0 0.0 0.00 0.07 0.07 96 1018.4
20210916024447 70 83 0.0 0.0 0.01 0.07 0.07 95 1018.2
20210916023941 70 83 0.0 0.0 0.01 0.07 0.07 95 1018.1
20210916023425 70 83 0.0 0.0 0.01 0.07 0.07 96 1018.2
20210916022926 70 83 0.0 0.0 0.01 0.07 0.07 95 1018.2
20210916022405 70 83 0.0 0.0 0.07 0.07 0.07 95 1018.2
20210916021857 70 83 0.0 0.0 0.07 0.07 0.07 95 1018.2
20210916021359 70 83 0.0 0.0 0.07 0.07 0.07 95 1018.1
20210916020853 71 83 0.0 0.0 0.07 0.07 0.07 95 1018.0
20210916020346 71 83 0.0 0.0 0.07 0.07 0.07 95 1018.1
20210916015834 71 83 0.0 1.0 0.07 0.07 0.07 95 1018.0
20210916015329 71 83 0.0 1.0 0.07 0.07 0.07 94 1018.2
20210916014822 71 83 0.0 0.0 0.07 0.07 0.07 94 1018.1
20210916014314 71 83 0.0 0.0 0.06 0.06 0.06 94 1018.0
20210916013759 72 83 0.0 0.0 0.06 0.06 0.06 93 1017.8
20210916013257 72 83 0.0 1.0 0.06 0.06 0.06 92 1017.8
20210916012756 73 83 0.0 1.0 0.06 0.06 0.06 91 1017.8
20210916012252 74 83 0.0 0.0 0.00 0.00 0.00 89 1017.8
20210916011745 73 83 0.0 0.0 0.00 0.00 0.00 88 1017.8
20210916011245 73 83 0.0 1.0 0.00 0.00 0.00 88 1017.9
20210916010729 73 83 0.0 1.0 0.00 0.00 0.00 88 1017.9
20210916010227 73 83 0.0 1.0 0.00 0.00 0.00 88 1017.7
20210916005712 73 83 0.0 3.0 0.00 0.00 0.00 88 1017.5
20210916005213 74 84 0.0 3.0 0.00 0.00 0.00 87 1017.4
20210916004713 74 168 0.0 2.0 0.00 0.00 0.00 87 1017.2
20210916004208 74 168 1.0 3.0 0.00 0.00 0.00 87 1017.1
20210916003707 74 99 0.0 3.0 0.00 0.00 0.00 87 1017.0
20210916003202 74 16 0.0 3.0 0.00 0.00 0.00 87 1016.8
20210916002703 74 16 0.0 3.0 0.00 0.00 0.00 86 1016.7
20210916002202 74 18 0.0 2.0 0.00 0.00 0.00 86 1016.7
20210916001703 74 18 0.0 2.0 0.00 0.00 0.00 86 1016.7
20210916001200 74 18 0.0 3.0 0.00 0.00 0.00 85 1016.6
20210916000649 74 21 0.0 3.0 0.00 0.00 0.00 85 1016.5
20210916000149 74 18 0.0 2.0 0.00 0.00 0.00 84 1016.3
20210915235648 74 18 1.0 5.0 0.00 0.00 0.00 84 1016.1
20210915235139 75 18 1.0 5.0 0.00 0.00 0.00 83 1016.1
20210915234636 75 28 1.0 4.0 0.00 0.00 0.00 83 1015.9
20210915234137 75 125 1.0 4.0 0.00 0.00 0.00 83 1015.8
20210915233633 75 275 0.0 3.0 0.00 0.00 0.00 84 1015.7
20210915233121 75 101 0.0 2.0 0.00 0.00 0.00 84 1015.7
20210915232620 75 74 1.0 2.0 0.00 0.00 0.00 84 1015.5
20210915232121 75 74 1.0 2.0 0.00 0.00 0.00 84 1015.4
20210915231620 75 74 0.0 4.0 0.00 0.00 0.00 83 1015.4
20210915231108 75 74 1.0 4.0 0.00 0.00 0.00 82 1015.3
20210915230612 76 8 1.0 2.0 0.00 0.00 0.00 82 1015.2
20210915230052 76 212 1.0 3.0 0.00 0.00 0.00 82 1015.1
20210915225553 76 147 0.0 3.0 0.00 0.00 0.00 81 1015.1
20210915225049 76 131 0.0 2.0 0.00 0.00 0.00 81 1015.0
20210915224547 76 131 0.0 4.0 0.00 0.00 0.00 80 1014.8
20210915224038 77 131 1.0 7.0 0.00 0.00 0.00 78 1014.9
20210915223532 77 168 1.0 7.0 0.00 0.00 0.00 78 1014.8
20210915223033 77 266 1.0 7.0 0.00 0.00 0.00 77 1014.7
20210915222529 77 106 1.0 4.0 0.00 0.00 0.00 78 1014.7
20210915222029 77 234 1.0 3.0 0.00 0.00 0.00 78 1014.5
20210915221525 78 5 1.0 10.0 0.00 0.00 0.00 78 1014.6
20210915221025 78 99 1.0 10.0 0.00 0.00 0.00 77 1014.5
20210915220515 78 200 1.0 2.0 0.00 0.00 0.00 77 1014.4
20210915220010 79 251 1.0 4.0 0.00 0.00 0.00 75 1014.3
20210915215511 79 253 1.0 4.0 0.00 0.00 0.00 75 1014.3
20210915215005 79 107 1.0 3.0 0.00 0.00 0.00 76 1014.3
20210915214505 80 14 2.0 7.0 0.00 0.00 0.00 74 1014.4
20210915214005 80 5 2.0 7.0 0.00 0.00 0.00 73 1014.3
20210915213503 80 109 1.0 4.0 0.00 0.00 0.00 75 1014.3
20210915213005 80 27 1.0 4.0 0.00 0.00 0.00 75 1014.1
20210915212502 80 118 1.0 4.0 0.00 0.00 0.00 75 1014.0
20210915212004 80 103 1.0 4.0 0.00 0.00 0.00 77 1013.9
20210915211504 80 111 1.0 4.0 0.00 0.00 0.00 76 1013.7
20210915211001 80 5 1.0 4.0 0.00 0.00 0.00 74 1013.8
20210915210502 80 1 2.0 6.0 0.00 0.00 0.00 74 1013.9
20210915210002 80 93 2.0 6.0 0.00 0.00 0.00 73 1013.8
20210915205501 80 175 1.0 4.0 0.00 0.00 0.00 72 1013.8
20210915205002 80 357 1.0 5.0 0.00 0.00 0.00 74 1013.7
20210915204503 81 358 1.0 5.0 0.00 0.00 0.00 73 1013.7
20210915203950 81 343 1.0 12.0 0.00 0.00 0.00 75 1013.5
20210915203443 81 26 2.0 12.0 0.00 0.00 0.00 70 1013.5
20210915202941 82 297 1.0 7.0 0.00 0.00 0.00 73 1013.6
20210915202437 82 179 1.0 5.0 0.00 0.00 0.00 72 1013.6
20210915201938 82 91 1.0 5.0 0.00 0.00 0.00 73 1013.5
20210915201439 82 203 1.0 7.0 0.00 0.00 0.00 73 1013.5
20210915200939 82 128 2.0 7.0 0.00 0.00 0.00 74 1013.6
20210915200434 82 117 2.0 9.0 0.00 0.00 0.00 71 1013.6
20210915195937 82 40 2.0 9.0 0.00 0.00 0.00 70 1013.6
20210915195435 82 84 1.0 6.0 0.00 0.00 0.00 74 1013.5
20210915194933 82 137 1.0 5.0 0.00 0.00 0.00 73 1013.5
20210915194429 82 19 2.0 5.0 0.00 0.00 0.00 74 1013.5
20210915193926 82 120 2.0 7.0 0.00 0.00 0.00 71 1013.5
20210915193423 82 311 1.0 8.0 0.00 0.00 0.00 71 1013.4
20210915192923 83 322 1.0 8.0 0.00 0.00 0.00 73 1013.4
20210915192422 83 21 2.0 6.0 0.00 0.00 0.00 72 1013.4
20210915191923 83 25 1.0 6.0 0.00 0.00 0.00 70 1013.4
20210915191423 83 297 1.0 4.0 0.00 0.00 0.00 73 1013.4
20210915190920 83 3 1.0 7.0 0.00 0.00 0.00 75 1013.4
20210915190417 83 3 1.0 7.0 0.00 0.00 0.00 75 1013.3
20210915185915 83 1 1.0 6.0 0.00 0.00 0.00 73 1013.4
20210915185413 83 190 1.0 5.0 0.00 0.00 0.00 75 1013.4
20210915184910 83 46 1.0 5.0 0.00 0.00 0.00 76 1013.4
20210915184410 83 78 1.0 8.0 0.00 0.00 0.00 72 1013.5
20210915183910 83 321 2.0 8.0 0.00 0.00 0.00 72 1013.5
20210915183411 83 345 2.0 6.0 0.00 0.00 0.00 72 1013.4
20210915182909 83 139 1.0 5.0 0.00 0.00 0.00 71 1013.5
20210915182409 83 130 1.0 4.0 0.00 0.00 0.00 76 1013.5
20210915181907 83 47 1.0 4.0 0.00 0.00 0.00 76 1013.5
20210915181403 83 41 1.0 7.0 0.00 0.00 0.00 75 1013.7
20210915180858 83 105 1.0 7.0 0.00 0.00 0.00 76 1013.7
20210915180354 83 109 2.0 7.0 0.00 0.00 0.00 75 1013.8
20210915175853 83 64 2.0 7.0 0.00 0.00 0.00 74 1013.9
20210915175353 83 336 1.0 4.0 0.00 0.00 0.00 74 1014.1
20210915174855 83 107 1.0 3.0 0.00 0.00 0.00 76 1014.1
20210915174350 82 130 1.0 5.0 0.00 0.00 0.00 78 1014.2
20210915173850 83 142 1.0 5.0 0.00 0.00 0.00 77 1014.3
20210915173349 83 270 1.0 8.0 0.00 0.00 0.00 77 1014.5
20210915172851 83 336 1.0 8.0 0.00 0.00 0.00 75 1014.6
20210915172350 83 195 1.0 6.0 0.00 0.00 0.00 78 1014.6
20210915171851 83 58 1.0 7.0 0.00 0.00 0.00 75 1014.7
20210915171352 83 119 1.0 7.0 0.00 0.00 0.00 78 1014.8
20210915170849 82 173 1.0 3.0 0.00 0.00 0.00 80 1014.9
20210915170350 82 80 1.0 5.0 0.00 0.00 0.00 80 1015.0
20210915165839 83 82 1.0 3.0 0.00 0.00 0.00 79 1015.0
20210915165340 83 356 1.0 3.0 0.00 0.00 0.00 81 1015.1
20210915164827 82 95 1.0 3.0 0.00 0.00 0.00 81 1015.2
20210915164329 82 76 1.0 3.0 0.00 0.00 0.00 82 1015.2
20210915163825 82 76 1.0 3.0 0.00 0.00 0.00 81 1015.2
20210915163325 82 82 1.0 9.0 0.00 0.00 0.00 79 1015.3
20210915162812 81 4 1.0 9.0 0.00 0.00 0.00 82 1015.3
20210915162305 81 245 1.0 7.0 0.00 0.00 0.00 83 1015.3
20210915161801 81 245 2.0 7.0 0.00 0.00 0.00 82 1015.3
20210915161257 81 32 1.0 4.0 0.00 0.00 0.00 81 1015.3
20210915160751 80 9 1.0 5.0 0.00 0.00 0.00 83 1015.5
20210915160248 80 337 1.0 5.0 0.00 0.00 0.00 84 1015.5
20210915155747 80 100 1.0 5.0 0.00 0.00 0.00 84 1015.6
20210915155247 79 355 1.0 5.0 0.00 0.00 0.00 84 1015.5
20210915154747 79 99 1.0 9.0 0.00 0.00 0.00 84 1015.6
20210915154240 80 3 1.0 9.0 0.00 0.00 0.00 83 1015.6
20210915153730 80 339 1.0 4.0 0.00 0.00 0.00 83 1015.7
20210915153229 80 185 1.0 4.0 0.00 0.00 0.00 81 1015.6
20210915152730 80 170 1.0 5.0 0.00 0.00 0.00 84 1015.7
20210915152222 79 242 1.0 5.0 0.00 0.00 0.00 84 1015.6
20210915151720 79 59 1.0 4.0 0.00 0.00 0.00 82 1015.6
20210915151213 79 26 1.0 3.0 0.00 0.00 0.00 84 1015.7
20210915150703 79 26 1.0 6.0 0.00 0.00 0.00 82 1015.8
20210915150200 78 166 1.0 6.0 0.00 0.00 0.00 85 1015.7
20210915145700 78 317 1.0 4.0 0.00 0.00 0.00 85 1015.8
20210915145159 78 328 1.0 6.0 0.00 0.00 0.00 85 1015.8
20210915144658 78 37 1.0 6.0 0.00 0.00 0.00 85 1016.0
20210915144153 78 26 1.0 3.0 0.00 0.00 0.00 84 1015.9
20210915143647 78 7 1.0 5.0 0.00 0.00 0.00 88 1016.0
20210915143147 77 3 1.0 5.0 0.00 0.00 0.00 85 1016.0
20210915142648 77 151 1.0 4.0 0.00 0.00 0.00 85 1016.0
20210915142145 77 68 1.0 3.0 0.00 0.00 0.00 85 1016.0
20210915141646 78 90 1.0 4.0 0.00 0.00 0.00 84 1016.1
20210915141147 77 53 1.0 4.0 0.00 0.00 0.00 84 1016.1
20210915140646 77 349 2.0 4.0 0.00 0.00 0.00 85 1016.2
20210915140145 76 134 1.0 7.0 0.00 0.00 0.00 85 1016.2
20210915135643 76 326 1.0 7.0 0.00 0.00 0.00 88 1016.2
20210915135144 76 26 1.0 5.0 0.00 0.00 0.00 87 1016.2
20210915134641 76 47 1.0 4.0 0.00 0.00 0.00 87 1016.2
20210915134142 76 47 1.0 4.0 0.00 0.00 0.00 87 1016.2
20210915133638 76 22 1.0 4.0 0.00 0.00 0.00 86 1016.1
20210915133126 75 22 1.0 4.0 0.00 0.00 0.00 88 1016.1
20210915132627 75 141 1.0 3.0 0.00 0.00 0.00 88 1016.1
20210915132122 75 160 1.0 6.0 0.00 0.00 0.00 88 1016.2
20210915131621 74 42 1.0 6.0 0.00 0.00 0.00 88 1016.2
20210915131122 74 94 0.0 3.0 0.00 0.00 0.00 90 1016.3
20210915130617 74 92 0.0 3.0 0.00 0.00 0.00 90 1016.3
20210915130119 74 122 1.0 4.0 0.00 0.00 0.00 90 1016.2
20210915125613 74 122 1.0 4.0 0.00 0.00 0.00 90 1016.1
20210915125106 73 68 0.0 3.0 0.00 0.00 0.00 90 1016.0
20210915124605 73 65 1.0 5.0 0.00 0.00 0.00 90 1016.1
20210915124104 73 49 1.0 6.0 0.00 0.00 0.00 91 1016.1
20210915123606 73 1 1.0 6.0 0.00 0.00 0.00 91 1016.2
20210915123104 72 105 1.0 3.0 0.00 0.00 0.00 92 1016.1
20210915122607 72 303 1.0 2.0 0.00 0.00 0.00 92 1016.2
20210915122104 72 303 0.0 2.0 0.00 0.00 0.00 92 1016.2
20210915121550 72 130 1.0 2.0 0.00 0.00 0.00 92 1016.3
20210915121048 72 77 1.0 6.0 0.00 0.00 0.00 93 1016.3
20210915120546 71 99 1.0 6.0 0.00 0.00 0.00 93 1016.3
20210915120042 71 88 1.0 2.0 0.00 0.00 0.00 94 1016.2
20210915115543 71 130 0.0 3.0 0.00 0.00 0.00 94 1016.3
20210915115038 70 130 0.0 3.0 0.00 0.00 0.00 95 1016.3
20210915114536 70 165 0.0 3.0 0.00 0.00 0.00 95 1016.3
20210915114013 70 168 0.0 3.0 0.00 0.00 0.00 95 1016.4
20210915113505 69 114 0.0 1.0 0.00 0.00 0.00 95 1016.5
20210915113007 69 114 0.0 1.0 0.00 0.00 0.00 96 1016.6
20210915112506 69 114 0.0 1.0 0.00 0.00 0.00 95 1016.5
20210915112002 69 114 0.0 2.0 0.00 0.00 0.00 95 1016.6
20210915111454 69 114 0.0 2.0 0.00 0.00 0.00 95 1016.6
20210915110945 69 110 0.0 2.0 0.00 0.00 0.00 95 1016.6
20210915110439 69 110 0.0 2.0 0.00 0.00 0.00 95 1016.7
20210915105932 69 110 0.0 2.0 0.00 0.00 0.00 95 1016.7
20210915105424 69 110 0.0 2.0 0.00 0.00 0.00 95 1016.7
20210915104910 69 110 0.0 2.0 0.00 0.00 0.00 95 1016.7
20210915104406 69 110 0.0 2.0 0.00 0.00 0.00 95 1016.7